Flin Flon, Flin Flon Airport (CYFO)

NameFlin Flon Airport
CityFlin Flon
CountryCanada
ICAOCYFO
IATAYFO
Altitude304 m
CoordinatesGoogle Map
Live Air TrafficLiveATC.net
METARCYFO 092300Z 23008KT 15SM SCT250 M05/M09 A2994 RMK CI3 VIA CYWG SLP167
2018-12-09 23:00:00 Wind: Southwest (230°) 4.12 m/s - Visibility: 24140.1 m - Temperature: -5 °C - Dew point: -9 °C - Humidity: 73.8% - Pressure: 1013.88 hPa

Sorry, no flights used the airport in this database.